Time;durP1;ratioP1;P1;durP2;ratioP2;P2;SDS_P1;SDS_P2;PMS_P1;PMS_P2;Temp;Humidity;BMP_temperature;BMP_pressure;BME280_temperature;BME280_humidity;BME280_pressure;Samples;Min_cycle;Max_cycle;Signal;HPM_P1;HPM_P2
2023/03/30 00:01:13;;;;;;;18.20;10.80;;;;;;;3.44;52.30;100422.98;102520;278;114649;-57
2023/03/30 00:03:49;;;;;;;22.60;10.30;;;;;;;3.43;52.43;100423.05;102502;278;94222;-57
2023/03/30 00:06:29;;;;;;;17.50;9.70;;;;;;;3.41;52.47;100420.92;102557;278;98158;-57
2023/03/30 00:09:12;;;;;;;19.80;10.10;;;;;;;3.38;52.74;100422.29;102493;278;118070;-57
2023/03/30 00:11:53;;;;;;;17.50;9.50;;;;;;;3.37;52.78;100423.95;102483;278;104636;-54
2023/03/30 00:14:39;;;;;;;21.10;10.20;;;;;;;3.34;52.85;100426.89;102478;278;114553;-55
2023/03/30 00:17:17;;;;;;;18.30;10.00;;;;;;;3.32;52.99;100426.95;102485;278;93725;-59
2023/03/30 00:20:07;;;;;;;17.00;8.90;;;;;;;3.29;53.18;100426.83;102524;278;98141;-59
2023/03/30 00:22:47;;;;;;;17.80;8.90;;;;;;;3.28;53.40;100420.20;102514;278;118640;-58
2023/03/30 00:25:22;;;;;;;17.50;10.50;;;;;;;3.28;53.68;100412.52;102511;278;105181;-60
2023/03/30 00:28:01;;;;;;;18.50;9.50;;;;;;;3.28;53.78;100404.35;102519;278;114311;-54
2023/03/30 00:30:38;;;;;;;18.30;9.00;;;;;;;3.30;53.97;100399.91;102500;278;93733;-54
2023/03/30 00:33:19;;;;;;;16.60;9.60;;;;;;;3.31;54.07;100396.45;102574;278;97753;-53
2023/03/30 00:35:58;;;;;;;16.70;8.50;;;;;;;3.32;54.09;100394.04;102524;278;119248;-55
2023/03/30 00:38:41;;;;;;;14.90;9.20;;;;;;;3.33;54.22;100389.42;102494;278;106183;-56
2023/03/30 00:41:22;;;;;;;17.40;9.20;;;;;;;3.35;54.41;100385.11;102512;279;114124;-54
2023/03/30 00:44:05;;;;;;;17.30;9.40;;;;;;;3.37;54.53;100385.65;102518;266;94086;-53
2023/03/30 00:46:45;;;;;;;17.10;9.10;;;;;;;3.40;54.80;100388.06;102568;278;98184;-57
2023/03/30 00:49:30;;;;;;;16.60;8.40;;;;;;;3.46;54.71;100386.81;102509;278;119275;-57
2023/03/30 00:52:11;;;;;;;16.40;9.40;;;;;;;3.46;54.88;100385.35;102487;278;105887;-55
2023/03/30 00:54:48;;;;;;;17.70;9.50;;;;;;;3.47;54.89;100381.02;102410;272;116263;-54
2023/03/30 00:57:25;;;;;;;15.30;9.20;;;;;;;3.47;54.96;100380.08;102573;278;93582;-58
2023/03/30 00:59:59;;;;;;;15.40;8.90;;;;;;;3.48;55.00;100377.37;102539;278;97858;-58
2023/03/30 01:02:44;;;;;;;14.30;8.40;;;;;;;3.48;55.06;100370.16;102536;279;119443;-54
2023/03/30 01:05:27;;;;;;;18.40;8.60;;;;;;;3.49;55.18;100370.96;102531;279;105307;-54
2023/03/30 01:08:07;;;;;;;18.50;9.20;;;;;;;3.51;55.23;100357.11;102572;278;113108;-54
2023/03/30 01:10:44;;;;;;;13.90;8.20;;;;;;;3.52;55.36;100354.29;102532;278;93490;-54
2023/03/30 01:13:23;;;;;;;17.20;8.80;;;;;;;3.53;55.38;100353.37;102530;278;98060;-55
2023/03/30 01:16:17;;;;;;;15.60;8.70;;;;;;;3.53;55.41;100348.54;102515;278;118191;-58
2023/03/30 01:19:07;;;;;;;14.50;8.40;;;;;;;3.53;55.52;100344.23;102548;278;105812;-59
2023/03/30 01:22:26;;;;;;;16.10;8.20;;;;;;;3.55;55.60;100345.17;102489;279;113682;-57
2023/03/30 01:25:45;;;;;;;14.40;8.20;;;;;;;3.57;55.54;100344.82;102490;278;92163;-57
2023/03/30 01:28:41;;;;;;;16.80;8.60;;;;;;;3.58;55.67;100349.86;102311;278;98378;-59
2023/03/30 01:32:02;;;;;;;14.30;7.90;;;;;;;3.58;55.85;100351.99;102520;278;118270;-54
2023/03/30 01:35:29;;;;;;;15.20;7.60;;;;;;;3.58;55.87;100352.73;102542;278;103964;-54
2023/03/30 01:38:36;;;;;;;14.50;7.70;;;;;;;3.58;55.89;100351.30;102310;279;114658;-54
2023/03/30 01:41:28;;;;;;;17.50;9.20;;;;;;;3.57;55.91;100351.00;102514;278;93952;-55
2023/03/30 01:44:15;;;;;;;15.70;8.50;;;;;;;3.58;55.96;100347.00;102496;279;97567;-54
2023/03/30 01:47:01;;;;;;;15.80;8.30;;;;;;;3.58;56.11;100344.89;102508;278;118749;-53
2023/03/30 01:49:51;;;;;;;12.90;7.90;;;;;;;3.59;56.10;100344.27;102488;278;104322;-54
2023/03/30 01:52:35;;;;;;;18.10;8.30;;;;;;;3.59;56.11;100341.55;102486;278;113857;-57
2023/03/30 01:55:13;;;;;;;;;;;;;;;3.59;56.14;100333.59;102530;278;93283;-58
2023/03/30 01:57:58;;;;;;;15.10;8.10;;;;;;;3.58;56.30;100331.31;102497;278;96844;-53
2023/03/30 02:00:36;;;;;;;17.90;9.20;;;;;;;3.58;56.36;100335.65;102499;278;118313;-53
2023/03/30 02:03:21;;;;;;;16.50;9.30;;;;;;;3.56;56.54;100332.02;102532;278;105202;-54
2023/03/30 02:06:09;;;;;;;17.00;9.70;;;;;;;3.54;56.60;100330.63;102503;279;114866;-54
2023/03/30 02:08:54;;;;;;;16.80;8.80;;;;;;;3.54;56.80;100330.66;102513;278;93203;-53
2023/03/30 02:11:37;;;;;;;17.00;8.50;;;;;;;3.54;56.76;100331.92;102542;278;97811;-53
2023/03/30 02:14:16;;;;;;;17.00;9.30;;;;;;;3.54;56.77;100334.69;102504;278;119074;-53
2023/03/30 02:16:59;;;;;;;17.40;9.00;;;;;;;3.53;56.82;100337.17;102531;279;104469;-58
2023/03/30 02:19:44;;;;;;;17.60;8.90;;;;;;;3.51;56.93;100334.13;102519;279;114178;-59
2023/03/30 02:22:22;;;;;;;15.00;7.90;;;;;;;3.50;56.97;100329.63;102494;278;93663;-57
2023/03/30 02:24:59;;;;;;;15.90;9.40;;;;;;;3.49;57.02;100326.17;102401;279;99121;-57
2023/03/30 02:27:37;;;;;;;17.40;9.20;;;;;;;3.49;57.04;100327.08;102518;278;119430;-56
2023/03/30 02:30:17;;;;;;;18.80;10.70;;;;;;;3.49;57.26;100327.71;102316;280;107328;-58
2023/03/30 02:32:57;;;;;;;17.70;9.70;;;;;;;3.49;57.35;100327.20;102550;279;115096;-59
2023/03/30 02:36:11;;;;;;;20.20;12.40;;;;;;;3.49;57.31;100322.92;102491;278;92189;-58
2023/03/30 02:39:04;;;;;;;16.00;10.20;;;;;;;3.48;57.52;100318.19;102467;278;98112;-57
2023/03/30 02:42:14;;;;;;;16.10;9.70;;;;;;;3.48;57.84;100315.73;102529;278;119952;-57
2023/03/30 02:45:05;;;;;;;16.90;9.70;;;;;;;3.48;57.84;100311.25;102533;278;104790;-57
2023/03/30 02:47:53;;;;;;;17.90;10.10;;;;;;;3.49;57.98;100308.81;102475;278;113990;-54
2023/03/30 02:50:41;;;;;;;18.70;10.70;;;;;;;3.48;58.04;100306.60;102448;278;92711;-53
2023/03/30 02:53:22;;;;;;;;;;;;;;;3.48;58.19;100305.57;102030;279;529277;-53
2023/03/30 02:56:07;;;;;;;19.50;14.50;;;;;;;3.48;58.24;100301.29;102498;278;120125;-57
2023/03/30 02:58:50;;;;;;;19.10;10.30;;;;;;;3.48;58.40;100298.32;102454;278;106024;-58
2023/03/30 03:01:35;;;;;;;15.00;10.00;;;;;;;3.49;58.45;100296.26;102557;278;114302;-57
2023/03/30 03:04:14;;;;;;;16.40;9.00;;;;;;;3.49;58.50;100295.30;102513;278;93927;-57
2023/03/30 03:06:51;;;;;;;17.90;9.80;;;;;;;3.50;58.69;100290.41;102507;279;97781;-58
2023/03/30 03:09:28;;;;;;;17.60;9.50;;;;;;;3.52;58.69;100293.64;102512;266;117981;-58
2023/03/30 03:12:07;;;;;;;19.10;10.00;;;;;;;3.53;58.71;100290.13;102553;278;104812;-53
2023/03/30 03:14:45;;;;;;;14.40;8.80;;;;;;;3.55;58.63;100291.88;102492;278;114690;-54
2023/03/30 03:17:33;;;;;;;18.00;9.60;;;;;;;3.55;58.80;100287.64;102511;278;93973;-53
2023/03/30 03:20:12;;;;;;;15.40;9.00;;;;;;;3.56;58.87;100282.40;102510;278;97838;-54
2023/03/30 03:22:50;;;;;;;17.70;9.90;;;;;;;3.56;58.98;100281.82;102567;278;118747;-55
2023/03/30 03:25:33;;;;;;;16.00;8.90;;;;;;;3.58;59.11;100279.90;102513;278;104428;-55
2023/03/30 03:28:16;;;;;;;16.80;9.80;;;;;;;3.60;59.11;100275.64;102485;278;114226;-54
2023/03/30 03:30:52;;;;;;;18.00;10.60;;;;;;;3.61;59.17;100271.08;102479;278;93520;-54
2023/03/30 03:33:32;;;;;;;20.10;10.10;;;;;;;3.61;59.18;100268.59;102543;278;98456;-57
2023/03/30 03:36:12;;;;;;;18.10;8.50;;;;;;;3.62;59.23;100270.12;102545;278;119393;-59
2023/03/30 03:38:49;;;;;;;15.70;9.00;;;;;;;3.63;59.35;100269.59;102506;278;105594;-58
2023/03/30 03:41:31;;;;;;;18.30;9.60;;;;;;;3.64;59.41;100261.11;102413;280;114143;-53
2023/03/30 03:44:10;;;;;;;18.80;9.50;;;;;;;3.65;59.47;100263.19;102341;280;93400;-54
2023/03/30 03:46:50;;;;;;;17.20;9.50;;;;;;;3.65;59.42;100263.90;102394;280;98343;-58
2023/03/30 03:49:30;;;;;;;18.00;10.10;;;;;;;3.65;59.60;100259.81;102350;280;118860;-58
2023/03/30 03:52:10;;;;;;;17.90;9.30;;;;;;;3.65;59.68;100258.42;102343;280;104875;-53
2023/03/30 03:54:54;;;;;;;19.00;9.70;;;;;;;3.65;59.91;100258.38;102373;280;114823;-54
2023/03/30 03:57:33;;;;;;;17.00;9.30;;;;;;;3.66;59.84;100255.48;102386;280;93669;-58
2023/03/30 04:00:14;;;;;;;17.00;9.00;;;;;;;3.66;59.83;100251.20;102396;280;96134;-58
2023/03/30 04:02:55;;;;;;;16.40;9.50;;;;;;;3.66;60.06;100254.38;102346;280;119334;-57
2023/03/30 04:05:36;;;;;;;20.20;10.30;;;;;;;3.65;60.26;100253.80;102367;280;105700;-58
2023/03/30 04:08:11;;;;;;;16.20;9.00;;;;;;;3.66;60.13;100252.78;102360;280;114865;-55
2023/03/30 04:11:06;;;;;;;16.60;9.20;;;;;;;3.66;60.08;100255.95;102385;280;92311;-54
2023/03/30 04:13:48;;;;;;;20.80;10.30;;;;;;;3.66;60.23;100249.74;102386;280;96826;-58
2023/03/30 04:16:30;;;;;;;20.90;9.90;;;;;;;3.66;60.38;100249.90;102366;280;120149;-59
2023/03/30 04:19:07;;;;;;;18.40;9.80;;;;;;;3.66;60.38;100254.31;102353;280;105523;-59
2023/03/30 04:21:46;;;;;;;17.90;10.10;;;;;;;3.67;60.41;100251.63;102397;280;114463;-54
2023/03/30 04:24:22;;;;;;;20.30;10.00;;;;;;;3.69;60.40;100253.52;102334;280;93971;-54
2023/03/30 04:26:57;;;;;;;16.70;9.90;;;;;;;3.71;60.52;100251.40;102352;280;98853;-54
2023/03/30 04:29:39;;;;;;;15.60;9.20;;;;;;;3.73;60.53;100248.73;102366;280;117626;-54
2023/03/30 04:32:19;;;;;;;19.80;10.70;;;;;;;3.75;60.63;100241.90;102391;280;105483;-54
2023/03/30 04:34:58;;;;;;;18.70;10.10;;;;;;;3.77;60.61;100236.38;102375;280;114021;-54
2023/03/30 04:37:40;;;;;;;17.80;9.80;;;;;;;3.80;60.65;100234.24;102335;280;92123;-53
2023/03/30 04:40:29;;;;;;;20.20;10.50;;;;;;;3.83;60.66;100233.74;102417;279;98214;-54
2023/03/30 04:43:12;;;;;;;19.20;10.30;;;;;;;3.87;60.79;100230.14;102489;274;119225;-54
2023/03/30 04:45:53;;;;;;;19.30;10.00;;;;;;;3.91;60.84;100226.19;102461;278;105614;-54
2023/03/30 04:48:31;;;;;;;17.20;9.90;;;;;;;3.97;60.88;100226.34;102487;279;113979;-58
2023/03/30 04:51:09;;;;;;;23.10;11.20;;;;;;;4.03;60.79;100223.59;102535;278;92729;-55
2023/03/30 04:53:50;;;;;;;18.30;11.10;;;;;;;4.09;60.80;100222.56;102523;278;97087;-54
2023/03/30 04:56:30;;;;;;;18.50;10.10;;;;;;;4.15;61.00;100217.77;102532;278;118993;-52
2023/03/30 04:59:07;;;;;;;18.10;9.50;;;;;;;4.22;60.91;100219.17;102500;278;104869;-53
2023/03/30 05:01:46;;;;;;;18.40;10.00;;;;;;;4.31;60.75;100220.30;102483;278;114823;-58
2023/03/30 05:04:27;;;;;;;22.10;11.50;;;;;;;4.38;60.85;100217.98;102499;278;93304;-60
2023/03/30 05:07:09;;;;;;;18.10;9.90;;;;;;;4.44;60.77;100211.41;102500;278;97892;-58
2023/03/30 05:09:50;;;;;;;17.60;10.00;;;;;;;4.51;60.73;100208.77;102499;278;120166;-60
2023/03/30 05:12:29;;;;;;;20.00;10.70;;;;;;;4.55;60.81;100207.48;102529;278;104897;-53
2023/03/30 05:15:05;;;;;;;18.40;10.80;;;;;;;4.59;60.74;100202.59;102511;279;111849;-53
2023/03/30 05:17:44;;;;;;;19.50;10.10;;;;;;;4.63;60.90;100201.48;102508;278;94341;-52
2023/03/30 05:20:20;;;;;;;19.10;9.90;;;;;;;4.65;60.84;100198.16;102515;278;96982;-53
2023/03/30 05:23:01;;;;;;;17.80;10.10;;;;;;;4.67;60.89;100198.71;102516;278;119662;-53
2023/03/30 05:25:42;;;;;;;18.20;10.40;;;;;;;4.71;60.88;100193.66;102512;278;105252;-55
2023/03/30 05:28:27;;;;;;;19.40;10.00;;;;;;;4.74;60.95;100194.77;102550;278;114679;-57
2023/03/30 05:31:07;;;;;;;21.60;10.40;;;;;;;4.77;60.89;100195.94;102502;278;93221;-59
2023/03/30 05:33:55;;;;;;;18.40;9.60;;;;;;;4.82;60.85;100193.66;102521;278;95679;-59
2023/03/30 05:36:34;;;;;;;20.60;11.00;;;;;;;4.87;60.72;100189.02;102515;278;119836;-59
2023/03/30 05:39:14;;;;;;;20.70;11.30;;;;;;;4.91;60.80;100188.67;102499;278;105228;-59
2023/03/30 05:41:51;;;;;;;19.20;10.00;;;;;;;4.98;60.72;100193.16;102537;278;114678;-55
2023/03/30 05:44:28;;;;;;;20.20;11.90;;;;;;;5.03;60.83;100192.49;102534;279;92177;-55
2023/03/30 05:47:13;;;;;;;18.80;11.00;;;;;;;5.05;60.86;100191.70;102519;278;98088;-53
2023/03/30 05:49:50;;;;;;;22.90;11.80;;;;;;;5.14;60.91;100197.55;102568;278;120264;-53
2023/03/30 05:52:31;;;;;;;21.60;11.00;;;;;;;5.24;60.81;100196.12;102501;279;105587;-57
2023/03/30 05:55:12;;;;;;;19.40;11.40;;;;;;;5.35;60.78;100193.39;102489;278;115562;-57
2023/03/30 05:57:52;;;;;;;22.00;11.20;;;;;;;5.45;60.70;100192.34;102562;279;92483;-53
2023/03/30 06:00:35;;;;;;;18.20;11.20;;;;;;;5.55;60.57;100186.64;102523;278;96751;-53
2023/03/30 06:03:14;;;;;;;18.40;11.30;;;;;;;5.59;60.66;100189.52;102519;278;120418;-58
2023/03/30 06:05:55;;;;;;;23.30;11.90;;;;;;;5.60;60.47;100192.14;102523;278;104820;-57
2023/03/30 06:08:30;;;;;;;18.00;10.80;;;;;;;5.61;60.54;100191.63;102499;278;114114;-53
2023/03/30 06:11:07;;;;;;;21.70;12.10;;;;;;;5.62;60.57;100193.01;102559;278;93605;-55
2023/03/30 06:13:47;;;;;;;23.80;12.30;;;;;;;5.61;60.58;100185.45;102528;278;98110;-55
2023/03/30 06:16:24;;;;;;;20.40;11.90;;;;;;;5.62;60.55;100182.66;102528;279;119337;-55
2023/03/30 06:18:58;;;;;;;22.70;12.00;;;;;;;5.65;60.44;100184.99;102558;278;104580;-54
2023/03/30 06:21:34;;;;;;;20.60;11.00;;;;;;;5.68;60.51;100183.79;102512;279;113642;-58
2023/03/30 06:24:14;;;;;;;20.70;11.60;;;;;;;5.75;60.57;100182.33;102538;278;93716;-60
2023/03/30 06:26:49;;;;;;;20.60;12.30;;;;;;;5.90;60.64;100175.83;102517;278;96760;-60
2023/03/30 06:29:30;;;;;;;19.90;11.70;;;;;;;6.07;60.66;100175.99;102554;278;118044;-60
2023/03/30 06:32:05;;;;;;;21.40;12.70;;;;;;;6.20;60.58;100171.98;102583;278;104117;-59
2023/03/30 06:34:43;;;;;;;21.80;12.00;;;;;;;6.39;60.43;100171.51;102574;278;114664;-60
2023/03/30 06:37:17;;;;;;;23.70;12.40;;;;;;;6.53;60.27;100169.03;102547;278;93305;-54
2023/03/30 06:39:56;;;;;;;23.10;12.40;;;;;;;6.66;60.00;100170.59;102558;278;96592;-55
2023/03/30 06:42:32;;;;;;;24.50;13.60;;;;;;;6.79;59.74;100169.26;102519;278;117098;-58
2023/03/30 06:45:09;;;;;;;21.40;12.60;;;;;;;6.90;59.65;100165.08;102556;278;105917;-58
2023/03/30 06:47:47;;;;;;;25.70;13.30;;;;;;;7.01;59.54;100172.30;102483;267;114335;-60
2023/03/30 06:50:22;;;;;;;20.40;12.30;;;;;;;7.10;59.42;100171.40;102504;278;93697;-60
2023/03/30 06:52:55;;;;;;;;;;;;;;;7.19;59.33;100173.29;102552;278;97435;-57
2023/03/30 06:55:37;;;;;;;21.20;11.80;;;;;;;7.35;59.38;100173.80;102549;278;120032;-57
2023/03/30 06:58:16;;;;;;;19.60;11.60;;;;;;;7.40;59.16;100173.23;102497;278;104366;-54
2023/03/30 07:00:52;;;;;;;21.00;12.60;;;;;;;7.34;58.93;100167.29;102532;278;114896;-55
2023/03/30 07:03:28;;;;;;;22.30;12.00;;;;;;;7.32;58.75;100168.21;102502;278;93327;-61
2023/03/30 07:06:08;;;;;;;18.90;11.50;;;;;;;7.33;58.76;100167.40;102475;278;97553;-58
2023/03/30 07:08:45;;;;;;;24.40;11.80;;;;;;;7.32;58.95;100164.06;102488;278;118326;-58
2023/03/30 07:11:22;;;;;;;19.50;13.00;;;;;;;7.25;58.84;100168.79;102546;279;106335;-59
2023/03/30 07:14:01;;;;;;;21.90;12.60;;;;;;;7.22;58.84;100165.77;102522;278;114889;-58
2023/03/30 07:16:35;;;;;;;19.60;11.50;;;;;;;7.25;58.81;100167.55;102522;279;92969;-54
2023/03/30 07:19:24;;;;;;;17.40;10.80;;;;;;;7.29;58.91;100167.85;102526;278;98063;-54
2023/03/30 07:22:15;;;;;;;20.00;11.60;;;;;;;7.29;58.85;100166.09;102567;278;119689;-58
2023/03/30 07:24:54;;;;;;;17.80;11.70;;;;;;;7.31;58.87;100167.73;102516;278;104871;-58
2023/03/30 07:27:35;;;;;;;19.00;11.00;;;;;;;7.46;58.87;100167.34;102482;278;114779;-59
2023/03/30 07:30:13;;;;;;;21.10;11.90;;;;;;;7.59;59.04;100160.55;102538;278;93633;-59
2023/03/30 07:32:50;;;;;;;17.70;11.50;;;;;;;7.75;58.94;100156.89;102518;279;97561;-59
2023/03/30 07:35:24;;;;;;;19.40;12.70;;;;;;;7.82;58.62;100159.61;102498;279;120157;-59
2023/03/30 07:37:58;;;;;;;19.60;12.70;;;;;;;7.79;58.49;100160.60;102516;278;104814;-55
2023/03/30 07:40:34;;;;;;;18.70;12.10;;;;;;;7.73;58.40;100160.91;102507;278;115290;-54
2023/03/30 07:43:10;;;;;;;23.60;12.60;;;;;;;7.69;58.55;100154.95;102552;278;93677;-55
2023/03/30 07:45:47;;;;;;;17.20;11.20;;;;;;;7.67;58.38;100152.14;102565;278;97917;-55
2023/03/30 07:48:24;;;;;;;17.90;11.10;;;;;;;7.64;58.48;100153.23;102485;279;119665;-56
2023/03/30 07:51:08;;;;;;;20.70;11.80;;;;;;;7.66;58.53;100152.91;102497;278;105326;-60
2023/03/30 07:53:51;;;;;;;25.80;17.30;;;;;;;7.69;58.53;100155.45;102511;278;113020;-59
2023/03/30 07:56:32;;;;;;;19.80;11.30;;;;;;;7.76;58.59;100158.64;102471;278;93842;-54
2023/03/30 07:59:13;;;;;;;20.50;11.80;;;;;;;7.83;58.51;100155.27;102522;278;96523;-55
2023/03/30 08:01:50;;;;;;;20.20;12.10;;;;;;;7.89;58.60;100153.30;102477;278;124656;-53
2023/03/30 08:04:30;;;;;;;23.70;14.10;;;;;;;7.95;58.56;100151.19;102485;279;106101;-54
2023/03/30 08:07:04;;;;;;;22.30;12.90;;;;;;;8.03;58.27;100147.00;102522;279;114673;-54
2023/03/30 08:09:50;;;;;;;19.80;11.90;;;;;;;8.08;58.20;100146.94;102367;280;95143;-54
2023/03/30 08:12:27;;;;;;;20.70;11.80;;;;;;;8.20;58.25;100140.64;102470;278;98640;-52
2023/03/30 08:15:04;;;;;;;19.40;12.30;;;;;;;8.30;58.23;100134.63;102520;278;121326;-54
2023/03/30 08:17:38;;;;;;;17.40;11.40;;;;;;;8.38;58.11;100130.50;102536;278;106264;-54
2023/03/30 08:20:15;;;;;;;21.30;12.30;;;;;;;8.54;58.12;100120.49;102505;278;113492;-54
2023/03/30 08:22:57;;;;;;;17.70;11.80;;;;;;;8.71;58.05;100120.73;102503;278;93037;-54
2023/03/30 08:25:33;;;;;;;20.00;12.60;;;;;;;8.82;57.94;100122.96;102487;278;96830;-55
2023/03/30 08:28:15;;;;;;;18.60;11.20;;;;;;;8.86;57.81;100122.11;102512;278;120390;-59
2023/03/30 08:30:55;;;;;;;17.40;11.90;;;;;;;8.86;57.70;100122.86;102474;279;105016;-57
2023/03/30 08:33:31;;;;;;;17.90;11.40;;;;;;;8.88;57.52;100118.69;102498;278;112793;-59
2023/03/30 08:36:07;;;;;;;17.50;12.20;;;;;;;8.88;57.64;100116.88;102521;278;94081;-60
2023/03/30 08:38:45;;;;;;;17.50;11.90;;;;;;;8.89;57.54;100118.35;102509;278;96849;-60
2023/03/30 08:41:48;;;;;;;20.50;12.00;;;;;;;8.73;57.42;100117.85;102532;278;121165;-59
2023/03/30 08:44:35;;;;;;;18.70;11.30;;;;;;;8.66;57.37;100112.40;102495;266;104988;-60
2023/03/30 08:47:19;;;;;;;18.10;12.70;;;;;;;8.66;57.69;100110.21;102531;279;113977;-60
2023/03/30 08:50:07;;;;;;;15.80;10.70;;;;;;;8.74;57.66;100103.29;102491;278;93679;-60
2023/03/30 08:52:42;;;;;;;27.40;13.00;;;;;;;8.70;57.60;100101.52;102535;279;97715;-60
2023/03/30 08:55:31;;;;;;;16.70;11.70;;;;;;;8.70;57.65;100100.91;102514;278;121707;-61
2023/03/30 08:58:23;;;;;;;19.80;12.40;;;;;;;8.71;57.64;100097.27;102540;279;104671;-55
2023/03/30 09:01:10;;;;;;;19.30;12.60;;;;;;;8.75;57.87;100089.09;102505;278;113337;-55
2023/03/30 09:04:00;;;;;;;23.60;12.70;;;;;;;8.77;57.71;100086.70;102463;278;93068;-55
2023/03/30 09:06:47;;;;;;;19.40;10.90;;;;;;;8.77;57.80;100086.09;102523;278;97668;-55
2023/03/30 09:09:28;;;;;;;17.70;11.90;;;;;;;8.70;57.78;100080.48;102463;278;120922;-54
2023/03/30 09:12:12;;;;;;;14.50;10.10;;;;;;;8.65;57.90;100078.70;102540;278;105275;-60
2023/03/30 09:14:51;;;;;;;16.20;11.60;;;;;;;8.62;58.09;100076.30;102505;278;115645;-61
2023/03/30 09:17:32;;;;;;;19.10;13.00;;;;;;;8.61;58.23;100075.73;102493;278;93407;-55
2023/03/30 09:20:13;;;;;;;23.70;12.00;;;;;;;8.54;58.33;100068.67;102533;278;96900;-55
2023/03/30 09:22:55;;;;;;;21.70;12.30;;;;;;;8.59;58.24;100067.30;102503;278;118519;-58
2023/03/30 09:25:43;;;;;;;18.30;11.80;;;;;;;8.60;58.27;100065.14;102518;279;106575;-59
2023/03/30 09:28:29;;;;;;;15.30;11.00;;;;;;;8.69;58.37;100062.52;102534;275;112358;-59
2023/03/30 09:31:15;;;;;;;19.80;11.60;;;;;;;8.81;58.27;100051.77;102499;278;91743;-56
2023/03/30 09:34:04;;;;;;;18.60;12.50;;;;;;;8.94;58.35;100047.58;102466;278;98192;-55
2023/03/30 09:36:53;;;;;;;21.60;12.70;;;;;;;9.11;58.42;100042.65;102540;279;120208;-61
2023/03/30 09:39:36;;;;;;;21.10;13.70;;;;;;;9.15;58.31;100037.56;102473;278;105805;-61
2023/03/30 09:42:34;;;;;;;25.10;15.50;;;;;;;9.26;58.02;100037.33;102518;278;114692;-55
2023/03/30 09:45:23;;;;;;;21.90;14.30;;;;;;;9.23;57.75;100038.92;102489;278;93306;-55
2023/03/30 09:48:07;;;;;;;19.10;13.10;;;;;;;9.40;57.92;100036.98;102485;278;96521;-59
2023/03/30 09:50:46;;;;;;;22.60;13.20;;;;;;;9.59;57.72;100030.18;102497;278;121265;-60
2023/03/30 09:53:28;;;;;;;18.00;12.30;;;;;;;9.96;57.50;100027.66;102521;278;106237;-57
2023/03/30 09:56:19;;;;;;;19.80;13.20;;;;;;;10.27;57.19;100023.05;102490;278;114773;-56
2023/03/30 09:58:57;;;;;;;21.60;13.20;;;;;;;10.51;56.59;100028.91;102490;278;94033;-55
2023/03/30 10:01:43;;;;;;;20.90;13.10;;;;;;;10.68;56.45;100021.95;102541;278;97059;-55
2023/03/30 10:04:19;;;;;;;19.30;13.30;;;;;;;11.01;56.45;100012.68;102505;278;120611;-55
2023/03/30 10:06:58;;;;;;;17.90;12.00;;;;;;;11.32;55.93;100007.81;102519;278;105247;-58
2023/03/30 10:09:45;;;;;;;19.30;12.30;;;;;;;11.62;55.85;99997.64;102485;278;114148;-60
2023/03/30 10:12:26;;;;;;;19.30;12.50;;;;;;;12.10;55.78;99989.15;102504;266;93360;-55
2023/03/30 10:15:04;;;;;;;18.80;11.60;;;;;;;12.34;55.26;99987.79;102509;279;98120;-55
2023/03/30 10:17:42;;;;;;;16.60;11.60;;;;;;;12.47;54.81;99978.95;102522;278;122008;-55
2023/03/30 10:20:28;;;;;;;16.30;11.60;;;;;;;12.62;54.41;99976.10;102535;278;105239;-55
2023/03/30 10:23:13;;;;;;;17.10;11.90;;;;;;;12.69;54.23;99975.67;102538;278;114463;-59
2023/03/30 10:25:51;;;;;;;14.50;11.10;;;;;;;12.81;53.74;99973.55;102508;278;94634;-59
2023/03/30 10:28:32;;;;;;;15.70;11.10;;;;;;;12.95;53.75;99969.45;102521;278;95974;-60
2023/03/30 10:31:17;;;;;;;17.70;11.00;;;;;;;13.21;53.62;99959.64;102531;278;120765;-61
2023/03/30 10:34:01;;;;;;;14.70;12.30;;;;;;;13.52;53.40;99955.02;102499;278;105456;-62
2023/03/30 10:36:40;;;;;;;22.00;14.40;;;;;;;13.54;52.53;99955.87;102490;278;113778;-60
2023/03/30 10:39:28;;;;;;;14.20;11.50;;;;;;;13.41;52.57;99956.30;102499;278;94411;-61
2023/03/30 10:42:08;;;;;;;13.00;10.20;;;;;;;13.53;52.69;99949.75;102499;278;97436;-55
2023/03/30 10:44:51;;;;;;;13.60;10.50;;;;;;;13.74;52.33;99952.19;102498;278;121822;-55
2023/03/30 10:47:45;;;;;;;13.00;9.90;;;;;;;14.04;52.48;99950.22;102528;278;104587;-61
2023/03/30 10:50:34;;;;;;;13.70;9.80;;;;;;;14.20;51.31;99951.71;102512;278;113680;-61
2023/03/30 10:53:32;;;;;;;15.60;11.30;;;;;;;14.18;51.39;99942.45;102089;266;562930;-61
2023/03/30 10:56:17;;;;;;;16.50;10.40;;;;;;;14.39;51.00;99936.95;102539;278;97599;-59
2023/03/30 10:59:15;;;;;;;17.20;9.80;;;;;;;14.50;50.91;99927.93;102500;279;120764;-60
2023/03/30 11:02:17;;;;;;;12.50;9.20;;;;;;;14.57;50.96;99926.80;102526;278;106792;-54
2023/03/30 11:05:03;;;;;;;13.60;9.20;;;;;;;14.56;50.28;99923.02;102486;278;114031;-55
2023/03/30 11:07:45;;;;;;;12.60;9.10;;;;;;;14.41;50.52;99925.80;102494;278;92388;-59
2023/03/30 11:10:31;;;;;;;12.80;8.80;;;;;;;14.30;50.66;99922.18;102480;278;98964;-59
2023/03/30 11:13:20;;;;;;;13.30;10.10;;;;;;;14.32;50.82;99921.01;102527;278;120925;-59
2023/03/30 11:16:02;;;;;;;11.40;8.70;;;;;;;14.30;50.86;99919.50;102504;279;104736;-56
2023/03/30 11:18:44;;;;;;;10.90;9.20;;;;;;;14.34;50.93;99911.79;102466;278;114504;-54
2023/03/30 11:21:28;;;;;;;14.40;9.50;;;;;;;14.37;51.12;99912.43;102513;278;93895;-58
2023/03/30 11:24:12;;;;;;;13.40;9.10;;;;;;;14.45;50.80;99910.13;102472;278;97959;-59
2023/03/30 11:26:58;;;;;;;13.40;9.80;;;;;;;14.46;50.71;99904.89;102501;278;120575;-59
2023/03/30 11:29:41;;;;;;;13.30;10.00;;;;;;;14.49;50.51;99901.64;102483;278;105387;-60
2023/03/30 11:32:37;;;;;;;15.90;10.10;;;;;;;14.55;50.54;99889.31;102445;278;114178;-59
2023/03/30 11:35:26;;;;;;;14.30;10.20;;;;;;;14.78;50.73;99875.89;102452;278;95334;-59
2023/03/30 11:38:09;;;;;;;14.00;9.40;;;;;;;14.67;50.16;99873.95;102519;278;97444;-55
2023/03/30 11:40:50;;;;;;;11.60;8.80;;;;;;;14.52;50.21;99870.31;102510;278;120175;-54
2023/03/30 11:43:32;;;;;;;13.80;9.10;;;;;;;14.33;50.26;99869.45;102493;279;104458;-55
2023/03/30 11:46:15;;;;;;;12.00;9.80;;;;;;;14.51;50.70;99863.82;102543;278;113202;-59
2023/03/30 11:49:19;;;;;;;12.70;9.10;;;;;;;14.47;50.16;99857.50;102482;278;93479;-60
2023/03/30 11:52:11;;;;;;;14.40;9.80;;;;;;;14.39;50.60;99845.80;102535;278;97800;-55
2023/03/30 11:55:47;;;;;;;10.10;8.70;;;;;;;14.27;50.58;99841.54;102503;278;118719;-55
2023/03/30 11:58:32;;;;;;;11.90;9.00;;;;;;;14.25;50.96;99837.30;102300;278;106146;-54
2023/03/30 12:01:27;;;;;;;13.30;9.30;;;;;;;14.45;50.96;99832.33;102548;278;115444;-55
2023/03/30 12:04:12;;;;;;;14.60;9.10;;;;;;;14.68;50.66;99826.20;102534;278;93579;-55
2023/03/30 12:07:00;;;;;;;11.90;8.90;;;;;;;14.77;50.46;99822.14;102554;279;96797;-58
2023/03/30 12:09:39;;;;;;;11.80;9.30;;;;;;;14.95;50.17;99810.17;102555;278;120430;-58
2023/03/30 12:12:35;;;;;;;12.00;9.10;;;;;;;14.89;49.49;99809.14;102515;278;105920;-55
2023/03/30 12:15:34;;;;;;;15.10;9.80;;;;;;;14.65;49.79;99816.42;102531;278;112805;-58
2023/03/30 12:18:21;;;;;;;11.40;9.10;;;;;;;14.46;49.80;99810.31;102512;278;94356;-58
2023/03/30 12:21:22;;;;;;;12.40;9.10;;;;;;;14.61;50.33;99800.66;102548;278;97296;-54
2023/03/30 12:24:14;;;;;;;14.60;9.60;;;;;;;14.96;50.46;99795.51;102481;266;120577;-54
2023/03/30 12:26:54;;;;;;;12.00;9.50;;;;;;;15.00;49.71;99799.30;102542;278;104361;-58
2023/03/30 12:29:47;;;;;;;12.50;9.70;;;;;;;14.93;49.43;99804.30;102467;278;114716;-58